createdAt,value
2022-09-06T00:01:25.714Z,100785.03
2022-09-06T00:07:27.627Z,100784.53
2022-09-06T00:13:29.521Z,100753.66
2022-09-06T00:19:31.317Z,100788.63
2022-09-06T00:25:33.985Z,100764.19
2022-09-06T00:31:35.861Z,100758.72
2022-09-06T00:37:37.727Z,100778.19
2022-09-06T00:43:40.689Z,100781.69
2022-09-06T00:49:47.063Z,100784.00
2022-09-06T00:55:49.429Z,100679.66
2022-09-06T01:01:51.370Z,100747.47
2022-09-06T01:08:16.832Z,100767.19
2022-09-06T01:14:37.245Z,100769.44
2022-09-06T01:20:54.249Z,100745.91
2022-09-06T01:27:24.949Z,100750.22
2022-09-06T01:34:05.278Z,100764.47
2022-09-06T01:40:08.119Z,100768.97
2022-09-06T01:46:09.944Z,100771.19
2022-09-06T01:52:26.525Z,100757.75
2022-09-06T01:59:06.937Z,100773.34
2022-09-06T02:05:14.685Z,100782.06
2022-09-06T02:11:17.170Z,100743.31
2022-09-06T02:17:23.970Z,100774.09
2022-09-06T02:23:31.357Z,100770.94
2022-09-06T02:29:34.280Z,100761.09
2022-09-06T02:35:45.110Z,100755.13
2022-09-06T02:41:48.385Z,100755.09
2022-09-06T02:47:50.186Z,100764.09
2022-09-06T02:53:52.108Z,100770.19
2022-09-06T02:59:53.944Z,100741.38
2022-09-06T03:05:56.390Z,100750.41
2022-09-06T03:11:58.154Z,100666.75
2022-09-06T03:18:00.254Z,100777.69
2022-09-06T03:24:02.284Z,100740.38
2022-09-06T03:30:06.163Z,100788.41
2022-09-06T03:36:07.996Z,100737.34
2022-09-06T03:42:09.903Z,100717.31
2022-09-06T03:48:11.739Z,100750.94
2022-09-06T03:54:13.740Z,100778.91
2022-09-06T04:00:15.915Z,100751.91
2022-09-06T04:06:17.874Z,100783.78
2022-09-06T04:12:19.770Z,100779.88
2022-09-06T04:18:22.123Z,100740.03
2022-09-06T04:24:24.048Z,100792.00
2022-09-06T04:30:26.076Z,100794.22
2022-09-06T04:36:28.126Z,100784.88
2022-09-06T04:42:30.034Z,100716.94
2022-09-06T04:48:31.961Z,100755.88
2022-09-06T04:54:33.912Z,100754.41
2022-09-06T05:00:36.600Z,100763.69
2022-09-06T05:06:40.142Z,100756.22
2022-09-06T05:12:44.293Z,100795.06
2022-09-06T05:18:46.287Z,100769.25
2022-09-06T05:24:48.163Z,100757.59
2022-09-06T05:30:50.043Z,100787.91
2022-09-06T05:36:51.912Z,100745.13
2022-09-06T05:42:53.693Z,100761.28
2022-09-06T05:48:58.231Z,100793.88
2022-09-06T05:55:00.009Z,100803.56
2022-09-06T06:01:16.230Z,100781.25
2022-09-06T06:07:18.365Z,100786.09
2022-09-06T06:13:20.183Z,100787.91
2022-09-06T06:19:22.010Z,100773.47
2022-09-06T06:25:26.378Z,100778.41
2022-09-06T06:31:30.249Z,100804.25
2022-09-06T06:37:36.731Z,100751.97
2022-09-06T06:43:38.596Z,100800.06
2022-09-06T06:49:40.363Z,100737.31
2022-09-06T06:55:48.215Z,100768.22
2022-09-06T07:01:57.534Z,100723.25
2022-09-06T07:07:59.609Z,100631.19
2022-09-06T07:14:01.467Z,100813.16
2022-09-06T07:20:18.910Z,100748.31
2022-09-06T07:26:26.347Z,100820.41
2022-09-06T07:32:28.142Z,100786.63
2022-09-06T07:38:31.541Z,100793.34
2022-09-06T07:44:33.352Z,100793.41
2022-09-06T07:50:51.855Z,100800.13
2022-09-06T07:56:55.927Z,100775.94
2022-09-06T08:03:00.312Z,100664.44
2022-09-06T08:09:03.905Z,100802.22
2022-09-06T08:15:06.571Z,100797.28
2022-09-06T08:21:13.399Z,100800.81
2022-09-06T08:27:15.156Z,100757.13
2022-09-06T08:39:54.936Z,100772.09
2022-09-06T08:45:57.468Z,100755.22
2022-09-06T08:52:18.105Z,100766.81
2022-09-06T09:04:57.558Z,100690.00
2022-09-06T09:11:10.489Z,100758.56
2022-09-06T09:17:27.988Z,100698.50
2022-09-06T09:23:31.288Z,100720.97
2022-09-06T09:35:52.757Z,100728.84
2022-09-06T09:41:55.203Z,100749.75
2022-09-06T09:47:57.920Z,100590.31
2022-09-06T09:54:02.394Z,100661.00
2022-09-06T10:00:13.460Z,100660.09
2022-09-06T10:13:47.259Z,100725.38
2022-09-06T10:26:46.749Z,100721.53
2022-09-06T10:33:00.256Z,100723.34
2022-09-06T10:39:43.763Z,100668.41
2022-09-06T10:46:05.319Z,100708.22
2022-09-06T10:52:11.889Z,100707.22
2022-09-06T10:58:19.055Z,100665.34
2022-09-06T11:10:57.344Z,100631.50
2022-09-06T11:17:05.293Z,100556.78
2022-09-06T11:36:50.990Z,100664.97
2022-09-06T11:42:53.071Z,100689.34
2022-09-06T11:49:02.992Z,100640.84
2022-09-06T11:55:10.752Z,100656.81
2022-09-06T12:01:12.600Z,100678.63
2022-09-06T12:14:28.433Z,100506.38
2022-09-06T12:33:41.053Z,100639.88
2022-09-06T13:18:51.564Z,100590.41
2022-09-06T13:37:41.940Z,100583.94
2022-09-06T13:43:45.980Z,100616.03
2022-09-06T13:56:48.270Z,100594.66
2022-09-06T14:15:46.742Z,100488.44
2022-09-06T14:21:48.905Z,100573.03
2022-09-06T14:34:15.254Z,100506.31
2022-09-06T14:40:17.767Z,100539.00
2022-09-06T14:46:22.738Z,100560.19
2022-09-06T14:52:39.166Z,100455.25
2022-09-06T14:58:42.800Z,100426.97
2022-09-06T15:04:47.473Z,100481.78
2022-09-06T15:10:56.181Z,100563.13
2022-09-06T15:23:32.767Z,100528.59
2022-09-06T15:29:34.781Z,100500.38
2022-09-06T15:35:38.617Z,100440.06
2022-09-06T15:41:41.486Z,100527.97
2022-09-06T15:47:43.480Z,100544.34
2022-09-06T15:53:46.877Z,100536.38
2022-09-06T16:02:09.634Z,100415.91
2022-09-06T16:06:53.290Z,100500.28
2022-09-06T16:12:55.749Z,100421.25
2022-09-06T16:18:59.139Z,100483.69
2022-09-06T16:25:01.116Z,100496.97
2022-09-06T16:31:08.543Z,100555.28
2022-09-06T16:37:10.564Z,100498.53
2022-09-06T16:43:13.214Z,100537.19
2022-09-06T16:49:17.274Z,100536.72
2022-09-06T16:55:19.349Z,100581.41
2022-09-06T17:01:21.969Z,100562.00
2022-09-06T17:07:24.899Z,100578.88
2022-09-06T17:13:27.758Z,100561.19
2022-09-06T17:19:30.102Z,100590.19
2022-09-06T17:25:32.993Z,100558.66
2022-09-06T17:31:35.777Z,100602.06
2022-09-06T17:37:37.571Z,100536.44
2022-09-06T17:43:39.444Z,100600.91
2022-09-06T17:49:42.655Z,100608.75
2022-09-06T17:55:47.288Z,100625.78
2022-09-06T18:01:49.095Z,100590.75
2022-09-06T18:07:51.072Z,100624.88
2022-09-06T18:13:57.354Z,100550.66
2022-09-06T18:20:02.263Z,100600.44
2022-09-06T18:26:08.002Z,100613.25
2022-09-06T18:32:09.951Z,100599.09
2022-09-06T18:38:12.835Z,100638.03
2022-09-06T18:44:14.718Z,100641.41
2022-09-06T18:50:17.304Z,100637.44
2022-09-06T18:56:19.995Z,100627.16
2022-09-06T19:02:23.640Z,100617.53
2022-09-06T19:08:25.633Z,100620.06
2022-09-06T19:14:27.610Z,100541.88
2022-09-06T19:20:29.426Z,100503.69
2022-09-06T19:26:34.272Z,100608.03
2022-09-06T19:32:36.512Z,100530.13
2022-09-06T19:38:59.578Z,100613.09
2022-09-06T19:45:00.829Z,100556.59
2022-09-06T19:51:08.295Z,100597.81
2022-09-06T19:57:10.330Z,100598.31
2022-09-06T20:03:12.475Z,100514.47
2022-09-06T20:09:16.113Z,100581.34
2022-09-06T20:15:17.949Z,100542.41
2022-09-06T20:21:21.104Z,100562.63
2022-09-06T20:27:23.026Z,100511.59
2022-09-06T20:33:24.808Z,100565.19
2022-09-06T20:39:26.686Z,100596.06
2022-09-06T20:45:28.542Z,100599.22
2022-09-06T20:51:31.287Z,100606.47
2022-09-06T20:57:33.142Z,100578.56
2022-09-06T21:03:38.638Z,100603.81
2022-09-06T21:09:40.507Z,100613.56
2022-09-06T21:15:42.438Z,100521.41
2022-09-06T21:21:44.432Z,100535.41
2022-09-06T21:27:46.241Z,100502.53
2022-09-06T21:33:54.400Z,100537.22
2022-09-06T21:39:56.270Z,100556.56
2022-09-06T21:46:02.134Z,100606.47
2022-09-06T21:52:04.145Z,100610.19
2022-09-06T21:58:06.182Z,100595.38
2022-09-06T22:04:08.464Z,100605.47
2022-09-06T22:10:10.197Z,100603.47
2022-09-06T22:16:13.215Z,100600.03
2022-09-06T22:22:15.076Z,100576.34
2022-09-06T22:28:16.879Z,100629.06
2022-09-06T22:34:18.772Z,100612.06
2022-09-06T22:40:20.726Z,100619.44
2022-09-06T22:46:23.167Z,100633.97
2022-09-06T22:52:25.029Z,100606.13
2022-09-06T22:58:27.222Z,100571.28
2022-09-06T23:04:29.192Z,100610.19
2022-09-06T23:10:32.410Z,100612.19
2022-09-06T23:16:34.369Z,100553.97
2022-09-06T23:22:36.228Z,100605.09
2022-09-06T23:28:39.032Z,100614.59
2022-09-06T23:34:40.777Z,100531.03
2022-09-06T23:40:42.493Z,100569.94
2022-09-06T23:46:44.382Z,100605.19
2022-09-06T23:52:46.404Z,100520.56
2022-09-06T23:58:48.214Z,100458.56
